Time;durP1;ratioP1;P1;durP2;ratioP2;P2;SDS_P1;SDS_P2;PMS_P1;PMS_P2;Temp;Humidity;BMP_temperature;BMP_pressure;BME280_temperature;BME280_humidity;BME280_pressure;Samples;Min_cycle;Max_cycle;Signal;HPM_P1;HPM_P2
2021/03/27 00:01:03;;;;;;;6.38;3.70;;;11.80;66.30;;;;;;4995026;28;20076;-67
2021/03/27 00:03:35;;;;;;;6.60;4.18;;;11.80;66.30;;;;;;5009049;28;20021;-67
2021/03/27 00:06:06;;;;;;;6.65;4.07;;;11.70;66.10;;;;;;5019141;28;20017;-66
2021/03/27 00:08:54;;;;;;;6.93;3.92;;;11.70;65.90;;;;;;5026162;28;20494;-67
2021/03/27 00:11:46;;;;;;;7.53;4.60;;;11.60;65.90;;;;;;5025001;28;20025;-67
2021/03/27 00:14:19;;;;;;;6.80;3.95;;;11.60;66.10;;;;;;5024256;28;20132;-67
2021/03/27 00:17:00;;;;;;;7.43;4.00;;;11.60;66.20;;;;;;5020455;28;20099;-67
2021/03/27 00:19:35;;;;;;;7.28;3.80;;;11.60;66.10;;;;;;5012684;28;20120;-67
2021/03/27 00:22:09;;;;;;;5.65;3.33;;;11.60;65.90;;;;;;5026146;28;20025;-67
2021/03/27 00:24:56;;;;;;;5.28;2.80;;;11.60;65.90;;;;;;5037748;28;20033;-66
2021/03/27 00:27:30;;;;;;;5.97;3.20;;;11.50;65.90;;;;;;5027501;28;20092;-67
2021/03/27 00:30:04;;;;;;;6.57;3.13;;;11.50;66.00;;;;;;5035002;28;20065;-67
2021/03/27 00:32:36;;;;;;;6.90;2.90;;;11.50;66.10;;;;;;5029064;28;20029;-67
2021/03/27 00:35:07;;;;;;;5.38;2.40;;;11.50;66.30;;;;;;4993617;28;20122;-67
2021/03/27 00:37:34;;;;;;;4.03;1.98;;;11.50;66.40;;;;;;4991756;28;20484;-67
2021/03/27 00:40:16;;;;;;;3.78;1.80;;;11.40;66.70;;;;;;5021797;28;20483;-67
2021/03/27 00:42:50;;;;;;;5.18;1.80;;;11.40;66.80;;;;;;5008382;28;20107;-67
2021/03/27 00:45:26;;;;;;;4.78;1.80;;;11.40;66.80;;;;;;5013432;28;20064;-68
2021/03/27 00:48:01;;;;;;;3.83;1.60;;;11.40;66.80;;;;;;5016254;28;20033;-67
2021/03/27 00:50:31;;;;;;;2.60;1.42;;;11.40;66.80;;;;;;5026976;28;20034;-67
2021/03/27 00:53:05;;;;;;;3.28;1.35;;;11.40;66.80;;;;;;5018399;28;20041;-67
2021/03/27 00:55:45;;;;;;;;;;;11.30;67.10;;;;;;5021877;28;20029;-67
2021/03/27 00:58:20;;;;;;;2.60;1.25;;;11.50;66.40;;;;;;5010013;28;19980;-67
2021/03/27 01:00:48;;;;;;;2.78;1.30;;;11.50;66.40;;;;;;5025248;28;20459;-67
2021/03/27 01:03:20;;;;;;;2.22;1.10;;;11.40;66.40;;;;;;5018108;28;20033;-67
2021/03/27 01:05:48;;;;;;;1.95;1.10;;;11.40;66.30;;;;;;5017743;28;20022;-67
2021/03/27 01:08:15;;;;;;;3.50;1.20;;;11.40;66.50;;;;;;5003908;28;20032;-68
2021/03/27 01:10:50;;;;;;;2.90;1.23;;;11.40;66.50;;;;;;5028611;28;20025;-67
2021/03/27 01:13:26;;;;;;;4.78;1.60;;;11.40;66.80;;;;;;5014927;28;20018;-67
2021/03/27 01:15:55;;;;;;;5.28;1.80;;;11.30;67.10;;;;;;5010512;28;20036;-67
2021/03/27 01:18:40;;;;;;;7.22;2.38;;;11.30;67.20;;;;;;5034345;28;20024;-67
2021/03/27 01:21:16;;;;;;;7.45;3.22;;;11.30;67.40;;;;;;5006077;28;20439;-68
2021/03/27 01:23:43;;;;;;;6.45;2.55;;;11.20;67.70;;;;;;5028496;28;20044;-67
2021/03/27 01:26:22;;;;;;;7.50;3.67;;;11.30;67.80;;;;;;5024957;28;20484;-67
2021/03/27 01:29:00;;;;;;;6.43;3.58;;;11.30;67.70;;;;;;5026877;28;20057;-67
2021/03/27 01:31:51;;;;;;;7.22;3.90;;;11.30;67.70;;;;;;5018648;28;20014;-67
2021/03/27 01:34:34;;;;;;;7.97;4.55;;;11.30;67.70;;;;;;5009009;28;20088;-68
2021/03/27 01:37:21;;;;;;;10.13;5.43;;;11.30;67.90;;;;;;4995884;28;20033;-67
2021/03/27 01:40:08;;;;;;;10.05;5.30;;;11.20;68.10;;;;;;5003487;28;20758;-67
2021/03/27 01:42:48;;;;;;;9.45;4.40;;;11.10;68.40;;;;;;5013762;28;20030;-67
2021/03/27 01:45:20;;;;;;;8.70;4.50;;;11.10;69.00;;;;;;5012733;28;20383;-68
2021/03/27 01:48:03;;;;;;;11.10;5.80;;;11.10;68.80;;;;;;4995182;28;20077;-67
2021/03/27 01:50:28;;;;;;;11.45;5.88;;;11.10;68.80;;;;;;5021868;28;20026;-67
2021/03/27 01:53:28;;;;;;;8.75;5.55;;;11.10;68.90;;;;;;5016322;28;20041;-67
2021/03/27 01:56:04;;;;;;;12.20;6.75;;;11.10;68.80;;;;;;5028013;28;20030;-67
2021/03/27 01:59:08;;;;;;;12.85;6.57;;;11.10;68.80;;;;;;5016929;28;20149;-67
2021/03/27 02:02:03;;;;;;;11.40;7.25;;;11.20;68.70;;;;;;4993464;28;20026;-67
2021/03/27 02:04:37;;;;;;;12.65;7.93;;;11.20;68.40;;;;;;5024458;28;20383;-67
2021/03/27 02:07:25;;;;;;;15.55;9.50;;;11.10;68.60;;;;;;5029181;28;20041;-67
2021/03/27 02:10:31;;;;;;;13.93;10.02;;;11.00;68.50;;;;;;5029312;28;20030;-67
2021/03/27 02:13:03;;;;;;;15.55;9.35;;;11.00;68.80;;;;;;5011761;28;20039;-67
2021/03/27 02:15:47;;;;;;;16.08;9.93;;;10.90;68.90;;;;;;5011178;28;20022;-67
2021/03/27 02:18:25;;;;;;;15.10;10.00;;;10.90;69.10;;;;;;5036408;28;20028;-67
2021/03/27 02:21:08;;;;;;;14.98;8.93;;;10.90;69.20;;;;;;5027899;28;20041;-67
2021/03/27 02:23:51;;;;;;;17.10;10.10;;;11.00;69.10;;;;;;5026660;28;20026;-67
2021/03/27 02:26:24;;;;;;;;;;;10.90;69.50;;;;;;5021512;28;20037;-68
2021/03/27 02:29:28;;;;;;;14.85;9.88;;;11.00;69.20;;;;;;5033923;28;19916;-67
2021/03/27 02:32:21;;;;;;;15.90;9.00;;;10.90;69.30;;;;;;5041120;28;20113;-67
2021/03/27 02:34:58;;;;;;;14.85;9.50;;;10.90;69.60;;;;;;5039687;28;20343;-67
2021/03/27 02:37:36;;;;;;;14.95;8.40;;;10.80;69.90;;;;;;5044586;28;20112;-68
2021/03/27 02:40:22;;;;;;;12.60;6.82;;;10.80;69.60;;;;;;5042438;28;20025;-68
2021/03/27 02:43:03;;;;;;;14.32;7.65;;;10.80;69.00;;;;;;5049304;28;20090;-68
2021/03/27 02:45:35;;;;;;;10.77;7.30;;;10.80;68.90;;;;;;5029118;28;20031;-68
2021/03/27 02:48:15;;;;;;;16.73;7.85;;;10.80;68.80;;;;;;5056753;28;20061;-68
2021/03/27 02:50:46;;;;;;;15.00;8.10;;;10.80;68.90;;;;;;5032919;28;20486;-68
2021/03/27 02:53:50;;;;;;;15.00;8.20;;;10.80;69.10;;;;;;5064788;28;20044;-68
2021/03/27 02:56:48;;;;;;;16.38;9.63;;;10.70;69.20;;;;;;5039828;28;20029;-68
2021/03/27 02:59:20;;;;;;;17.92;9.68;;;10.70;69.60;;;;;;5035968;28;20060;-68
2021/03/27 03:02:07;;;;;;;12.68;7.65;;;10.60;69.70;;;;;;5046807;28;20106;-68
2021/03/27 03:04:52;;;;;;;15.90;8.88;;;10.60;70.00;;;;;;5070795;28;20031;-68
2021/03/27 03:07:26;;;;;;;15.32;8.23;;;10.60;70.00;;;;;;5047292;28;20083;-68
2021/03/27 03:10:24;;;;;;;;;;;10.60;70.50;;;;;;5033802;28;20123;-68
2021/03/27 03:13:14;;;;;;;17.15;7.32;;;10.80;69.50;;;;;;5030348;28;19912;-68
2021/03/27 03:16:11;;;;;;;12.93;7.70;;;10.70;69.40;;;;;;5046110;28;20057;-67
2021/03/27 03:19:14;;;;;;;14.55;7.32;;;10.60;69.50;;;;;;5058958;28;20486;-67
2021/03/27 03:21:52;;;;;;;15.40;8.38;;;10.50;69.60;;;;;;5037681;28;20026;-67
2021/03/27 03:24:20;;;;;;;13.27;8.38;;;10.50;69.80;;;;;;5059581;28;20044;-67
2021/03/27 03:27:21;;;;;;;14.65;6.85;;;10.50;69.80;;;;;;5030119;28;20132;-67
2021/03/27 03:29:56;;;;;;;16.08;8.85;;;10.40;69.80;;;;;;5030833;28;20444;-67
2021/03/27 03:32:32;;;;;;;15.77;7.47;;;10.40;70.10;;;;;;5042034;28;20035;-67
2021/03/27 03:35:31;;;;;;;16.95;8.02;;;10.50;70.20;;;;;;5046774;28;20022;-68
2021/03/27 03:38:16;;;;;;;11.40;7.38;;;10.50;70.10;;;;;;5040097;28;20071;-68
2021/03/27 03:40:50;;;;;;;13.65;7.32;;;10.60;70.10;;;;;;5030891;28;20087;-68
2021/03/27 03:43:29;;;;;;;12.93;6.60;;;10.60;70.00;;;;;;5059533;28;20040;-67
2021/03/27 03:46:21;;;;;;;12.85;7.53;;;10.60;70.00;;;;;;5042488;28;20045;-68
2021/03/27 03:49:03;;;;;;;26.55;9.02;;;10.60;69.80;;;;;;5048030;28;20036;-68
2021/03/27 03:52:03;;;;;;;17.33;8.10;;;10.60;70.10;;;;;;5048526;28;20375;-68
2021/03/27 03:54:49;;;;;;;15.80;9.75;;;10.70;70.30;;;;;;5018440;28;20033;-68
2021/03/27 03:57:30;;;;;;;17.20;8.43;;;10.70;70.10;;;;;;5029305;28;20527;-68
2021/03/27 04:00:22;;;;;;;19.60;8.13;;;10.70;69.90;;;;;;5042967;28;20033;-69
2021/03/27 04:02:58;;;;;;;21.13;8.80;;;10.70;69.90;;;;;;5051280;28;20037;-68
2021/03/27 04:05:47;;;;;;;19.23;9.38;;;10.70;69.90;;;;;;5051048;28;20495;-68
2021/03/27 04:08:33;;;;;;;20.52;10.63;;;10.60;70.10;;;;;;5051277;28;20059;-68
2021/03/27 04:11:07;;;;;;;22.23;10.45;;;10.50;70.10;;;;;;5039228;28;20037;-68
2021/03/27 04:13:51;;;;;;;25.98;11.38;;;10.50;70.30;;;;;;5054948;28;20471;-68
2021/03/27 04:16:21;;;;;;;18.25;8.65;;;10.40;70.30;;;;;;5033776;28;20120;-67
2021/03/27 04:19:05;;;;;;;18.23;9.45;;;10.50;70.40;;;;;;5055046;28;20091;-67
2021/03/27 04:21:50;;;;;;;20.40;8.38;;;10.50;70.30;;;;;;5033448;28;20025;-67
2021/03/27 04:24:29;;;;;;;18.17;9.25;;;10.50;70.30;;;;;;5035583;28;20189;-68
2021/03/27 04:26:58;;;;;;;19.33;8.85;;;10.50;70.50;;;;;;5034574;28;20052;-68
2021/03/27 04:29:52;;;;;;;15.95;7.60;;;10.50;70.50;;;;;;5023861;28;20025;-67
2021/03/27 04:32:46;;;;;;;17.55;8.23;;;10.50;70.40;;;;;;5035130;28;20045;-68
2021/03/27 04:35:39;;;;;;;15.52;7.57;;;10.50;70.40;;;;;;5018078;28;20042;-68
2021/03/27 04:38:14;;;;;;;18.67;8.52;;;10.40;70.30;;;;;;5013153;28;20084;-67
2021/03/27 04:41:00;;;;;;;17.23;7.50;;;10.30;70.40;;;;;;5022912;28;20555;-67
2021/03/27 04:43:31;;;;;;;28.65;10.13;;;10.30;70.40;;;;;;5006717;28;20368;-67
2021/03/27 04:46:06;;;;;;;15.40;7.63;;;10.30;70.50;;;;;;5008837;28;20046;-66
2021/03/27 04:48:40;;;;;;;13.57;6.40;;;10.30;70.60;;;;;;5026530;28;20041;-67
2021/03/27 04:51:33;;;;;;;20.23;7.78;;;10.30;70.60;;;;;;5033245;28;20029;-67
2021/03/27 04:54:21;;;;;;;13.27;7.68;;;10.30;70.40;;;;;;5025268;28;20025;-67
2021/03/27 04:57:13;;;;;;;16.33;6.15;;;10.30;70.40;;;;;;5015612;28;20045;-67
2021/03/27 04:59:45;;;;;;;17.00;6.60;;;10.30;70.20;;;;;;5011102;28;20022;-67
2021/03/27 05:02:16;;;;;;;16.98;7.38;;;10.30;70.20;;;;;;5027355;28;20030;-67
2021/03/27 05:05:12;;;;;;;13.88;6.65;;;10.30;70.20;;;;;;5008160;28;20030;-67
2021/03/27 05:08:03;;;;;;;15.45;5.78;;;10.40;70.20;;;;;;5022260;28;20034;-67
2021/03/27 05:10:51;;;;;;;16.92;6.32;;;10.40;70.10;;;;;;5026955;28;20117;-67
2021/03/27 05:13:30;;;;;;;17.58;6.53;;;10.40;69.90;;;;;;5016710;28;20029;-67
2021/03/27 05:16:16;;;;;;;16.65;5.68;;;10.50;69.80;;;;;;4993075;28;20139;-67
2021/03/27 05:19:08;;;;;;;12.85;4.38;;;10.50;69.50;;;;;;5020488;28;20452;-67
2021/03/27 05:21:36;;;;;;;24.08;7.00;;;10.50;69.60;;;;;;5030225;28;20053;-67
2021/03/27 05:24:08;;;;;;;11.88;4.38;;;10.50;69.60;;;;;;5012697;28;20207;-67
2021/03/27 05:26:52;;;;;;;10.10;4.82;;;10.50;69.60;;;;;;5023035;28;20130;-67
2021/03/27 05:29:24;;;;;;;14.82;5.60;;;10.60;69.80;;;;;;5013047;28;20470;-68
2021/03/27 05:31:52;;;;;;;17.80;5.80;;;10.60;69.90;;;;;;5007140;28;20088;-67
2021/03/27 05:34:32;;;;;;;10.48;4.18;;;10.50;70.40;;;;;;5019020;28;20053;-68
2021/03/27 05:37:18;;;;;;;10.93;3.88;;;13.00;72.30;;;;;;5027393;28;20040;-67
2021/03/27 05:40:01;;;;;;;7.47;3.38;;;10.30;71.00;;;;;;5020546;28;20104;-67
2021/03/27 05:42:35;;;;;;;8.85;3.38;;;10.20;70.40;;;;;;5007662;28;20061;-67
2021/03/27 05:45:23;;;;;;;9.27;3.30;;;10.10;69.80;;;;;;5013371;28;20048;-67
2021/03/27 05:48:07;;;;;;;10.75;3.53;;;10.10;70.40;;;;;;5026398;28;20030;-67
2021/03/27 05:51:06;;;;;;;12.02;3.85;;;10.00;70.30;;;;;;5013811;28;20022;-68
2021/03/27 05:53:56;;;;;;;7.95;2.92;;;10.00;70.20;;;;;;5020991;28;20018;-67
2021/03/27 05:56:40;;;;;;;7.53;3.15;;;10.10;70.20;;;;;;5012623;28;20151;-68
2021/03/27 05:59:37;;;;;;;9.48;3.22;;;10.10;70.20;;;;;;5014098;28;20038;-67
2021/03/27 06:02:23;;;;;;;12.02;3.58;;;10.20;70.00;;;;;;5010259;28;20021;-67
2021/03/27 06:05:03;;;;;;;9.85;3.60;;;10.20;69.80;;;;;;5021312;28;20038;-67
2021/03/27 06:07:44;;;;;;;12.52;3.10;;;8.00;68.50;;;;;;5028948;28;20148;-67
2021/03/27 06:10:24;;;;;;;13.80;3.95;;;10.30;69.70;;;;;;5015594;28;20075;-67
2021/03/27 06:13:11;;;;;;;12.40;4.75;;;10.30;69.60;;;;;;5028538;28;20030;-67
2021/03/27 06:15:55;;;;;;;10.77;2.75;;;10.40;69.70;;;;;;5014726;28;20660;-67
2021/03/27 06:18:26;;;;;;;18.08;4.55;;;10.40;69.60;;;;;;5021313;28;20075;-67
2021/03/27 06:21:04;;;;;;;14.80;3.92;;;10.40;69.60;;;;;;5020478;28;20022;-68
2021/03/27 06:23:48;;;;;;;14.23;4.00;;;10.30;69.10;;;;;;5021335;28;20068;-68
2021/03/27 06:26:35;;;;;;;11.60;3.03;;;10.40;68.70;;;;;;5015743;28;20105;-68
2021/03/27 06:29:07;;;;;;;9.77;2.85;;;10.30;68.10;;;;;;5023388;28;20068;-68
2021/03/27 06:32:19;;;;;;;13.80;3.22;;;10.30;67.70;;;;;;5015633;28;20029;-68
2021/03/27 06:34:44;;;;;;;7.20;2.45;;;10.30;66.70;;;;;;5017721;28;20480;-68
2021/03/27 06:37:16;;;;;;;11.30;2.97;;;10.20;66.60;;;;;;5008010;28;20033;-68
2021/03/27 06:39:50;;;;;;;10.38;3.17;;;10.20;66.30;;;;;;5028537;28;20045;-68
2021/03/27 06:42:54;;;;;;;9.13;2.65;;;10.10;66.30;;;;;;5019765;28;20448;-68
2021/03/27 06:45:40;;;;;;;12.57;3.63;;;10.10;66.30;;;;;;5000840;28;20095;-68
2021/03/27 06:48:30;;;;;;;9.15;3.08;;;10.10;66.40;;;;;;5022478;28;20469;-68
2021/03/27 06:51:32;;;;;;;9.30;2.13;;;10.10;66.50;;;;;;5026497;28;20018;-68
2021/03/27 06:54:22;;;;;;;13.10;3.58;;;10.20;66.50;;;;;;5019064;28;20029;-67
2021/03/27 06:57:06;;;;;;;10.75;2.60;;;10.30;66.20;;;;;;5023329;28;20040;-68
2021/03/27 06:59:50;;;;;;;6.75;2.50;;;10.50;65.80;;;;;;5010820;28;20034;-68
2021/03/27 07:02:18;;;;;;;11.10;3.17;;;10.60;65.10;;;;;;5002812;28;20084;-68
2021/03/27 07:05:17;;;;;;;15.85;6.80;;;10.60;64.50;;;;;;5020225;28;20029;-68
2021/03/27 07:07:52;;;;;;;12.75;4.55;;;10.50;64.40;;;;;;5024869;28;20116;-68
2021/03/27 07:11:03;;;;;;;16.95;6.75;;;10.50;64.50;;;;;;5019249;28;20041;-68
2021/03/27 07:13:59;;;;;;;11.07;2.85;;;10.40;64.50;;;;;;5001379;28;20387;-69
2021/03/27 07:16:39;;;;;;;7.45;2.30;;;10.40;64.70;;;;;;5024858;28;20025;-68
2021/03/27 07:19:42;;;;;;;10.90;3.20;;;11.20;64.90;;;;;;5029636;28;20084;-68
2021/03/27 07:22:27;;;;;;;6.40;2.10;;;13.50;58.90;;;;;;4956974;28;20107;-69
2021/03/27 07:25:33;;;;;;;6.47;1.85;;;15.60;53.50;;;;;;5010589;28;20046;-68
2021/03/27 07:28:17;;;;;;;9.00;2.40;;;17.90;47.10;;;;;;5006314;28;20070;-68
2021/03/27 07:30:43;;;;;;;6.53;1.92;;;19.70;43.30;;;;;;5048245;28;20044;-68
2021/03/27 07:33:34;;;;;;;7.65;2.67;;;21.00;40.30;;;;;;5045766;28;20025;-68
2021/03/27 07:36:25;;;;;;;8.20;2.50;;;22.30;37.90;;;;;;5038469;28;20036;-68
2021/03/27 07:39:25;;;;;;;8.50;2.67;;;23.40;36.40;;;;;;5033530;28;20079;-68
2021/03/27 07:42:28;;;;;;;6.63;2.13;;;23.90;33.70;;;;;;5036445;28;20026;-68
2021/03/27 07:45:11;;;;;;;13.75;3.88;;;23.00;34.90;;;;;;5031260;28;20124;-66
2021/03/27 07:48:14;;;;;;;11.20;2.95;;;22.70;35.40;;;;;;5046420;28;20025;-67
2021/03/27 07:50:42;;;;;;;12.45;2.28;;;21.70;36.00;;;;;;5044874;28;20037;-66
2021/03/27 07:53:11;;;;;;;7.10;2.17;;;20.40;38.10;;;;;;5047491;28;20033;-67
2021/03/27 07:55:58;;;;;;;6.25;2.20;;;18.90;40.70;;;;;;5050832;28;20021;-67
2021/03/27 07:59:11;;;;;;;7.22;2.30;;;17.50;43.60;;;;;;5040417;28;20473;-66
2021/03/27 08:01:56;;;;;;;11.60;3.17;;;16.50;46.30;;;;;;5036655;28;20044;-67
2021/03/27 08:04:47;;;;;;;12.88;3.00;;;15.90;47.70;;;;;;5046826;28;20086;-67
2021/03/27 08:07:41;;;;;;;8.07;2.42;;;15.70;48.00;;;;;;5042187;28;20076;-67
2021/03/27 08:10:19;;;;;;;;;;;15.50;48.80;;;;;;5039641;28;20021;-67
2021/03/27 08:12:45;;;;;;;12.15;2.05;;;;;;;;;;5039197;28;19946;-67
2021/03/27 08:15:40;;;;;;;9.88;3.25;;;14.30;51.00;;;;;;5046552;28;20021;-67
2021/03/27 08:18:43;;;;;;;13.23;2.60;;;13.80;52.50;;;;;;5046884;28;20044;-67
2021/03/27 08:21:24;;;;;;;13.98;3.22;;;13.20;53.80;;;;;;5039619;28;20096;-68
2021/03/27 08:24:19;;;;;;;9.18;2.53;;;13.10;54.50;;;;;;5034531;28;20360;-67
2021/03/27 08:27:22;;;;;;;15.95;3.95;;;12.80;55.50;;;;;;5005093;28;20040;-68
2021/03/27 08:30:25;;;;;;;10.13;2.15;;;12.50;56.40;;;;;;5040240;28;20040;-67
2021/03/27 08:33:18;;;;;;;11.27;2.30;;;12.30;57.20;;;;;;5047336;28;20056;-67
2021/03/27 08:36:18;;;;;;;7.57;2.17;;;12.10;58.00;;;;;;5044318;28;20045;-67
2021/03/27 08:39:11;;;;;;;10.70;2.30;;;12.00;57.90;;;;;;5037306;28;20467;-67
2021/03/27 08:42:07;;;;;;;9.48;3.53;;;11.80;58.20;;;;;;5042324;28;20025;-67
2021/03/27 08:45:10;;;;;;;7.80;1.95;;;11.50;57.50;;;;;;5043549;28;20036;-66
2021/03/27 08:47:51;;;;;;;6.78;1.88;;;11.40;57.30;;;;;;5037451;28;20132;-67
2021/03/27 08:50:44;;;;;;;7.80;1.80;;;11.20;57.20;;;;;;5041383;28;20037;-66
2021/03/27 08:53:24;;;;;;;7.95;1.75;;;11.40;57.90;;;;;;5044181;28;20029;-65
2021/03/27 08:55:58;;;;;;;11.10;2.33;;;12.80;54.70;;;;;;5039870;28;20029;-67
2021/03/27 08:58:30;;;;;;;7.25;2.03;;;14.00;52.80;;;;;;5043614;28;20164;-67
2021/03/27 09:01:25;;;;;;;5.05;1.98;;;14.30;49.60;;;;;;5042882;28;20032;-66
2021/03/27 09:04:06;;;;;;;6.90;1.60;;;13.90;49.80;;;;;;5042116;28;20048;-66
2021/03/27 09:06:50;;;;;;;8.13;2.17;;;13.20;51.90;;;;;;5036314;28;20175;-67
2021/03/27 09:09:36;;;;;;;6.93;2.35;;;13.00;53.50;;;;;;5045677;28;20033;-67
2021/03/27 09:12:13;;;;;;;9.50;2.60;;;12.90;53.80;;;;;;5046590;28;20025;-66
2021/03/27 09:15:00;;;;;;;11.80;2.33;;;12.70;54.60;;;;;;5048669;28;20079;-66
2021/03/27 09:17:38;;;;;;;8.20;2.25;;;12.40;55.40;;;;;;5055448;28;20447;-66
2021/03/27 09:20:38;;;;;;;11.30;2.72;;;12.20;56.30;;;;;;5046631;28;20475;-72
2021/03/27 09:23:22;;;;;;;10.00;2.70;;;12.00;57.00;;;;;;5047682;28;20139;-68
2021/03/27 09:26:06;;;;;;;11.32;3.25;;;11.90;57.80;;;;;;5046279;28;20029;-67
2021/03/27 09:28:55;;;;;;;10.15;3.08;;;12.90;58.80;;;;;;5033170;28;20038;-74
2021/03/27 09:31:21;;;;;;;7.57;2.78;;;15.20;54.90;;;;;;5028102;28;20099;-70
2021/03/27 09:33:59;;;;;;;11.10;2.03;;;17.00;49.40;;;;;;5012861;28;20412;-72
2021/03/27 09:36:44;;;;;;;6.75;1.80;;;17.80;45.70;;;;;;5019251;28;20044;-76
2021/03/27 09:39:25;;;;;;;11.45;2.88;;;18.80;44.10;;;;;;4995369;28;20480;-74
2021/03/27 09:41:58;;;;;;;9.32;2.72;;;19.50;41.20;;;;;;5015280;28;20026;-76
2021/03/27 09:45:05;;;;;;;10.10;2.75;;;20.00;40.00;;;;;;5012487;28;20330;-77
2021/03/27 09:48:02;;;;;;;8.13;2.78;;;20.30;38.90;;;;;;4991422;28;20033;-73
2021/03/27 09:50:51;;;;;;;11.88;3.35;;;20.50;40.20;;;;;;5022193;28;20018;-73
2021/03/27 09:53:55;;;;;;;12.13;3.35;;;20.80;38.30;;;;;;5031531;28;20470;-74
2021/03/27 09:56:39;;;;;;;13.52;3.50;;;20.70;39.20;;;;;;5024258;28;20026;-77
2021/03/27 09:59:27;;;;;;;12.40;3.20;;;20.00;39.50;;;;;;5021749;28;20135;-74
2021/03/27 10:02:17;;;;;;;14.18;3.40;;;19.70;39.60;;;;;;5008816;28;20332;-74
2021/03/27 10:05:00;;;;;;;9.48;2.92;;;17.70;42.50;;;;;;5022570;28;20038;-74
2021/03/27 10:07:44;;;;;;;9.57;3.00;;;17.40;45.00;;;;;;5022305;28;20029;-72
2021/03/27 10:10:34;;;;;;;9.35;2.28;;;17.90;42.40;;;;;;5001027;28;20100;-72
2021/03/27 10:13:28;;;;;;;9.02;2.42;;;18.70;40.60;;;;;;5017577;28;20030;-65
2021/03/27 10:15:59;;;;;;;9.93;2.35;;;19.50;39.40;;;;;;5020448;28;20122;-68
2021/03/27 10:18:51;;;;;;;8.98;1.92;;;19.50;40.00;;;;;;5030146;28;20150;-74
2021/03/27 10:21:28;;;;;;;10.02;2.63;;;20.40;35.90;;;;;;4972490;28;20052;-76
2021/03/27 10:24:17;;;;;;;12.25;2.33;;;20.40;35.40;;;;;;5015994;28;20029;-73
2021/03/27 10:27:01;;;;;;;7.13;2.33;;;20.80;35.40;;;;;;5009430;28;20083;-70
2021/03/27 10:29:50;;;;;;;7.50;2.03;;;20.60;34.10;;;;;;5043365;28;20098;-72
2021/03/27 10:32:31;;;;;;;7.35;2.60;;;19.70;34.00;;;;;;5043734;28;20485;-72
2021/03/27 10:35:37;;;;;;;6.03;2.13;;;18.40;34.50;;;;;;5046427;28;20037;-73
2021/03/27 10:38:15;;;;;;;6.20;2.28;;;17.40;36.00;;;;;;5034685;28;20044;-73
2021/03/27 10:40:43;;;;;;;6.40;2.03;;;17.10;35.80;;;;;;5060772;28;20032;-72
2021/03/27 10:43:33;;;;;;;9.65;2.00;;;16.90;36.60;;;;;;5046659;28;20112;-70
2021/03/27 10:46:09;;;;;;;9.63;2.63;;;16.60;36.70;;;;;;5046875;28;20116;-74
2021/03/27 10:48:41;;;;;;;8.43;1.90;;;16.10;37.70;;;;;;5044375;28;20382;-69
2021/03/27 10:51:18;;;;;;;6.18;1.90;;;16.10;39.70;;;;;;5042464;28;20128;-67
2021/03/27 10:54:12;;;;;;;7.63;2.53;;;18.30;35.90;;;;;;5045976;28;20044;-67
2021/03/27 10:57:06;;;;;;;8.02;2.30;;;21.20;31.30;;;;;;5057160;28;20049;-65
2021/03/27 11:00:05;;;;;;;8.98;2.78;;;23.60;28.70;;;;;;5042138;28;20032;-67
2021/03/27 11:02:42;;;;;;;10.02;2.42;;;24.40;27.20;;;;;;5042371;28;20118;-66
2021/03/27 11:05:14;;;;;;;6.97;2.10;;;26.20;27.60;;;;;;5047774;28;20086;-73
2021/03/27 11:08:14;;;;;;;7.50;2.05;;;24.00;26.50;;;;;;5038842;28;21077;-68
2021/03/27 11:11:24;;;;;;;6.43;2.28;;;22.50;27.70;;;;;;5039883;28;20064;-71
2021/03/27 11:14:01;;;;;;;7.18;1.88;;;20.90;29.10;;;;;;5033712;28;20082;-66
2021/03/27 11:17:18;;;;;;;8.55;2.10;;;19.50;30.20;;;;;;5039442;28;20302;-67
2021/03/27 11:20:02;;;;;;;6.18;1.90;;;19.80;31.10;;;;;;5030603;28;20513;-67
2021/03/27 11:23:05;;;;;;;5.53;2.33;;;21.10;29.60;;;;;;5038531;28;20040;-67
2021/03/27 11:26:08;;;;;;;6.37;1.70;;;20.60;29.50;;;;;;5040931;28;20033;-67
2021/03/27 11:28:57;;;;;;;7.25;2.30;;;19.80;30.70;;;;;;5030188;28;20375;-68
2021/03/27 11:31:50;;;;;;;8.48;2.58;;;20.10;30.30;;;;;;5022023;28;20502;-67
2021/03/27 11:34:31;;;;;;;7.30;2.17;;;21.90;28.60;;;;;;5015749;28;20175;-68
2021/03/27 11:37:09;;;;;;;7.47;2.25;;;22.90;28.00;;;;;;5020842;28;20271;-68
2021/03/27 11:39:43;;;;;;;8.32;2.45;;;22.40;28.50;;;;;;5000265;28;20022;-66
2021/03/27 11:42:27;;;;;;;7.70;2.45;;;21.20;28.80;;;;;;5007474;28;20399;-66
2021/03/27 11:44:56;;;;;;;5.78;2.13;;;19.70;30.30;;;;;;5018511;28;20039;-65
2021/03/27 11:47:31;;;;;;;8.73;2.55;;;18.50;31.80;;;;;;5023314;28;20091;-67
2021/03/27 11:50:21;;;;;;;7.85;2.55;;;17.40;33.80;;;;;;5026313;28;20052;-66
2021/03/27 11:53:20;;;;;;;9.05;2.28;;;16.40;36.80;;;;;;5016282;28;20486;-65
2021/03/27 11:56:20;;;;;;;8.00;2.30;;;15.60;39.80;;;;;;5019931;28;20022;-65
2021/03/27 12:02:19;;;;;;;7.50;2.53;;;14.30;44.90;;;;;;5023328;28;20091;-66
2021/03/27 12:05:15;;;;;;;9.38;2.00;;;14.00;46.50;;;;;;5010159;28;20029;-66
2021/03/27 12:08:02;;;;;;;6.55;2.50;;;13.80;46.80;;;;;;5014878;28;20041;-66
2021/03/27 12:10:46;;;;;;;10.95;2.17;;;13.70;47.30;;;;;;5024544;28;20041;-66
2021/03/27 12:13:30;;;;;;;10.75;3.38;;;13.60;47.40;;;;;;5014891;28;20028;-65
2021/03/27 12:16:14;;;;;;;13.10;2.42;;;13.70;47.30;;;;;;5023017;28;20029;-66
2021/03/27 12:18:46;;;;;;;9.65;2.33;;;13.70;47.20;;;;;;5019078;28;20440;-68
2021/03/27 12:21:30;;;;;;;8.55;2.97;;;13.70;47.10;;;;;;5022776;28;20042;-68
2021/03/27 12:24:32;;;;;;;8.60;2.55;;;13.60;47.40;;;;;;5024740;28;20121;-68
2021/03/27 12:27:25;;;;;;;8.18;2.28;;;13.50;47.80;;;;;;5018420;28;20026;-66
2021/03/27 12:29:58;;;;;;;11.32;2.80;;;13.30;48.90;;;;;;5028447;28;20120;-65
2021/03/27 12:32:45;;;;;;;15.38;3.38;;;12.90;50.30;;;;;;5027554;28;20033;-67
2021/03/27 12:35:27;;;;;;;7.57;2.20;;;12.50;51.50;;;;;;5025072;28;20194;-68
2021/03/27 12:38:08;;;;;;;10.32;2.90;;;12.40;53.40;;;;;;5020383;28;20171;-67
2021/03/27 12:40:56;;;;;;;14.88;2.83;;;12.50;54.60;;;;;;5027595;28;20029;-67
2021/03/27 12:43:26;;;;;;;9.55;2.22;;;12.70;53.90;;;;;;5039471;28;20037;-67
2021/03/27 12:46:29;;;;;;;8.05;2.45;;;12.70;54.10;;;;;;5012012;28;20029;-68
2021/03/27 12:49:07;;;;;;;11.93;3.00;;;12.80;55.70;;;;;;5032479;28;20061;-66
2021/03/27 12:51:52;;;;;;;10.88;2.53;;;13.10;55.40;;;;;;5033599;28;20113;-67
2021/03/27 12:54:26;;;;;;;13.18;2.60;;;13.20;54.90;;;;;;5016016;28;20024;-67
2021/03/27 12:57:27;;;;;;;13.65;2.97;;;13.30;54.30;;;;;;5021653;28;20072;-67
2021/03/27 13:00:17;;;;;;;11.15;2.90;;;13.40;53.80;;;;;;5016030;28;20049;-67
2021/03/27 13:02:57;;;;;;;7.90;2.55;;;13.30;53.00;;;;;;5029564;28;20040;-66
2021/03/27 13:05:41;;;;;;;10.20;2.55;;;13.30;52.00;;;;;;5022079;28;20057;-68
2021/03/27 13:08:32;;;;;;;11.60;2.72;;;13.10;50.90;;;;;;5031485;28;20049;-67
2021/03/27 13:11:27;;;;;;;10.70;2.40;;;13.00;51.30;;;;;;5028935;28;20037;-67
2021/03/27 13:14:14;;;;;;;10.00;2.03;;;13.00;51.40;;;;;;5027327;28;20510;-68
2021/03/27 13:16:46;;;;;;;10.30;3.03;;;12.90;51.00;;;;;;5008023;28;20033;-70
2021/03/27 13:19:29;;;;;;;6.95;2.50;;;12.90;51.30;;;;;;5026111;28;20032;-68
2021/03/27 13:22:21;;;;;;;12.52;3.13;;;12.90;51.40;;;;;;5005674;28;20108;-68
2021/03/27 13:25:14;;;;;;;13.05;2.53;;;13.20;53.00;;;;;;4996309;28;20144;-68
2021/03/27 13:27:49;;;;;;;9.25;2.55;;;13.50;51.90;;;;;;5024605;28;20064;-71
2021/03/27 13:30:26;;;;;;;12.80;2.58;;;13.70;51.30;;;;;;5022656;28;20025;-69
2021/03/27 13:33:12;;;;;;;15.85;3.85;;;13.90;50.80;;;;;;5027993;28;20630;-69
2021/03/27 13:35:50;;;;;;;9.63;2.13;;;14.20;49.10;;;;;;5023732;28;20013;-69
2021/03/27 13:38:39;;;;;;;8.68;2.65;;;14.40;48.70;;;;;;5004415;28;20048;-72
2021/03/27 13:41:36;;;;;;;8.05;2.25;;;14.50;49.40;;;;;;5024209;28;20025;-69
2021/03/27 13:44:05;;;;;;;13.93;3.25;;;15.00;48.40;;;;;;4996754;28;20088;-65
2021/03/27 13:46:38;;;;;;;9.10;2.70;;;15.20;47.40;;;;;;5025665;28;20029;-70
2021/03/27 13:49:11;;;;;;;8.15;2.55;;;15.40;45.90;;;;;;5026520;28;20029;-69
2021/03/27 13:51:46;;;;;;;7.05;2.28;;;15.40;43.90;;;;;;5012787;28;20113;-66
2021/03/27 13:54:20;;;;;;;10.85;2.33;;;15.30;42.80;;;;;;5010541;28;20029;-68
2021/03/27 13:57:20;;;;;;;10.80;2.47;;;15.20;43.60;;;;;;5021564;28;20117;-65
2021/03/27 14:00:10;;;;;;;15.95;2.88;;;15.10;45.00;;;;;;5020192;28;23714;-66
2021/03/27 14:02:52;;;;;;;11.65;3.05;;;15.10;44.00;;;;;;5025480;28;20041;-64
2021/03/27 14:05:17;;;;;;;10.15;2.42;;;14.80;43.50;;;;;;5017262;28;20125;-65
2021/03/27 14:08:06;;;;;;;9.55;3.05;;;14.60;43.90;;;;;;5022396;28;20183;-64
2021/03/27 14:10:47;;;;;;;10.80;2.80;;;14.40;44.70;;;;;;5019033;28;20471;-63
2021/03/27 14:13:43;;;;;;;6.22;2.17;;;14.20;45.50;;;;;;5022326;28;20091;-64